Time;durP1;ratioP1;P1;durP2;ratioP2;P2;SDS_P1;SDS_P2;PMS_P1;PMS_P2;Temp;Humidity;BMP_temperature;BMP_pressure;BME280_temperature;BME280_humidity;BME280_pressure;Samples;Min_cycle;Max_cycle;Signal;HPM_P1;HPM_P2
2023/03/09 00:01:36;;;;;;;;;;;;;;;1.17;84.13;92821.66;5051759;28;19912;-38
2023/03/09 00:04:02;;;;;;;;;;;;;;;1.09;83.93;92816.00;5052047;28;19923;-38
2023/03/09 00:06:27;;;;;;;;;;;;;;;1.35;82.77;92821.78;5051813;28;19916;-38
2023/03/09 00:08:53;;;;;;;;;;;;;;;1.17;83.63;92827.09;5051715;28;19967;-38
2023/03/09 00:11:18;;;;;;;;;;;;;;;1.00;84.19;92829.88;5051534;28;19913;-38
2023/03/09 00:13:44;;;;;;;;;;;;;;;0.99;85.29;92830.41;5051618;28;19920;-38
2023/03/09 00:16:14;;;;;;;;;;;;;;;1.02;84.95;92823.97;5051526;28;19912;-38
2023/03/09 00:18:39;;;;;;;;;;;;;;;0.79;84.79;92826.06;5037665;28;20393;-38
2023/03/09 00:21:05;;;;;;;;;;;;;;;1.00;84.05;92824.47;5031721;28;19921;-38
2023/03/09 00:23:30;;;;;;;;;;;;;;;0.81;84.37;92826.28;5031780;28;20362;-38
2023/03/09 00:25:55;;;;;;;;;;;;;;;0.78;85.42;92816.41;5031651;28;19971;-38
2023/03/09 00:28:21;;;;;;;;;;;;;;;0.66;85.74;92815.75;5046653;28;19947;-38
2023/03/09 00:30:46;;;;;;;;;;;;;;;0.73;84.94;92815.22;5030969;28;19917;-38
2023/03/09 00:33:11;;;;;;;;;;;;;;;0.73;84.81;92811.75;5036707;28;20569;-38
2023/03/09 00:35:36;;;;;;;;;;;;;;;0.69;84.78;92816.72;5051284;28;20016;-38
2023/03/09 00:38:02;;;;;;;;;;;;;;;0.62;84.11;92817.22;5051085;28;20400;-38
2023/03/09 00:40:27;;;;;;;;;;;;;;;0.69;84.01;92812.00;5050833;28;20384;-38
2023/03/09 00:42:53;;;;;;;;;;;;;;;0.78;83.93;92800.84;5051199;28;19912;-38
2023/03/09 00:45:18;;;;;;;;;;;;;;;0.84;83.60;92795.41;5051160;28;20050;-38
2023/03/09 00:47:43;;;;;;;;;;;;;;;0.73;84.58;92790.03;5050926;28;19928;-38
2023/03/09 00:50:09;;;;;;;;;;;;;;;0.61;84.13;92794.00;5050776;28;19955;-38
2023/03/09 00:52:34;;;;;;;;;;;;;;;0.59;84.68;92791.81;5066246;28;19920;-38
2023/03/09 00:54:59;;;;;;;;;;;;;;;0.78;84.02;92792.69;5050868;28;20000;-38
2023/03/09 00:57:25;;;;;;;;;;;;;;;0.85;83.65;92796.13;5033752;28;20290;-38
2023/03/09 00:59:51;;;;;;;;;;;;;;;0.49;84.38;92782.47;5030548;28;20071;-38
2023/03/09 01:02:17;;;;;;;;;;;;;;;0.31;85.28;92783.03;5030543;28;19917;-38
2023/03/09 01:04:42;;;;;;;;;;;;;;;0.26;85.41;92783.06;5030842;28;19917;-38
2023/03/09 01:07:08;;;;;;;;;;;;;;;0.23;85.86;92778.63;5030740;28;20375;-38
2023/03/09 01:09:33;;;;;;;;;;;;;;;0.28;85.78;92778.59;5030815;28;19919;-38
2023/03/09 01:11:58;;;;;;;;;;;;;;;0.32;84.90;92786.47;5030267;28;20351;-37
2023/03/09 01:14:23;;;;;;;;;;;;;;;0.48;83.98;92785.66;5030419;28;19921;-38
2023/03/09 01:16:49;;;;;;;;;;;;;;;0.44;83.82;92785.94;5030522;28;19963;-38
2023/03/09 01:19:14;;;;;;;;;;;;;;;0.40;84.60;92785.47;5030266;28;19913;-38
2023/03/09 01:21:39;;;;;;;;;;;;;;;0.35;84.31;92788.94;5030109;28;19914;-38
2023/03/09 01:24:05;;;;;;;;;;;;;;;0.31;83.75;92785.00;5030432;28;19944;-38
2023/03/09 01:26:30;;;;;;;;;;;;;;;0.22;84.52;92783.28;5030023;28;19913;-38
2023/03/09 01:28:55;;;;;;;;;;;;;;;0.03;85.69;92774.22;5030416;28;19920;-38
2023/03/09 01:31:20;;;;;;;;;;;;;;;0.12;85.28;92773.97;5029493;28;20335;-38
2023/03/09 01:33:46;;;;;;;;;;;;;;;0.14;84.90;92768.78;5040344;28;20012;-38
2023/03/09 01:36:12;;;;;;;;;;;;;;;0.30;83.95;92765.28;5049879;28;19964;-38
2023/03/09 01:38:38;;;;;;;;;;;;;;;0.21;84.25;92762.09;5049975;28;19951;-38
2023/03/09 01:41:03;;;;;;;;;;;;;;;0.32;84.64;92765.50;5049815;28;20015;-38
2023/03/09 01:43:28;;;;;;;;;;;;;;;0.39;84.36;92759.53;5049957;28;19913;-38
2023/03/09 01:46:12;;;;;;;;;;;;;;;0.19;85.28;92751.00;5049714;28;19912;-38
2023/03/09 01:48:38;;;;;;;;;;;;;;;-0.10;86.05;92760.44;5049560;28;20383;-38
2023/03/09 01:51:03;;;;;;;;;;;;;;;-0.15;87.23;92770.06;5065415;28;19924;-38
2023/03/09 01:53:28;;;;;;;;;;;;;;;-0.29;86.53;92767.63;5049463;28;19917;-38
2023/03/09 01:55:54;;;;;;;;;;;;;;;-0.26;87.48;92763.94;5045261;28;19956;-38
2023/03/09 01:58:20;;;;;;;;;;;;;;;-0.17;87.57;92752.81;5045153;28;20306;-38
2023/03/09 02:00:46;;;;;;;;;;;;;;;-0.20;87.80;92751.84;5029364;28;20463;-38
2023/03/09 02:03:13;;;;;;;;;;;;;;;-0.27;87.78;92730.66;5029820;28;19913;-38
2023/03/09 02:05:40;;;;;;;;;;;;;;;-0.02;87.80;92735.00;5045155;28;19917;-38
2023/03/09 02:08:05;;;;;;;;;;;;;;;0.13;85.62;92736.72;5044774;28;19917;-38
2023/03/09 02:10:35;;;;;;;;;;;;;;;0.07;85.78;92730.53;5029689;28;19992;-38
2023/03/09 02:13:07;;;;;;;;;;;;;;;0.04;85.37;92731.56;5029525;28;19917;-38
2023/03/09 02:15:32;;;;;;;;;;;;;;;0.07;84.89;92727.81;5044722;28;19951;-38
2023/03/09 02:17:58;;;;;;;;;;;;;;;-0.01;84.28;92739.22;5029283;28;19921;-38
2023/03/09 02:20:41;;;;;;;;;;;;;;;-0.29;86.29;92730.41;5029329;28;19956;-38
2023/03/09 02:23:07;;;;;;;;;;;;;;;-0.20;86.92;92737.53;5009481;28;19914;-38
2023/03/09 02:25:47;;;;;;;;;;;;;;;-0.40;87.39;92741.28;5041348;28;19920;-38
2023/03/09 02:28:12;;;;;;;;;;;;;;;-0.33;87.09;92735.34;5026489;28;19913;-38
2023/03/09 02:30:38;;;;;;;;;;;;;;;-0.32;87.12;92744.94;5044707;28;19924;-38
2023/03/09 02:33:05;;;;;;;;;;;;;;;-0.17;86.60;92742.69;5048275;28;20423;-38
2023/03/09 02:35:30;;;;;;;;;;;;;;;-0.22;85.97;92740.72;5048956;28;19913;-38
2023/03/09 02:37:55;;;;;;;;;;;;;;;-0.20;85.58;92727.44;5049213;28;19971;-38
2023/03/09 02:40:28;;;;;;;;;;;;;;;-0.35;86.97;92729.69;5049229;28;19913;-38
2023/03/09 02:42:53;;;;;;;;;;;;;;;-0.44;87.30;92740.78;5066457;28;20473;-38
2023/03/09 02:45:19;;;;;;;;;;;;;;;-0.60;87.32;92744.25;5053075;28;19912;-38
2023/03/09 02:47:46;;;;;;;;;;;;;;;-0.54;87.07;92744.25;5068231;28;20013;-38
2023/03/09 02:50:11;;;;;;;;;;;;;;;-0.46;87.55;92750.66;5052946;28;19924;-38
2023/03/09 02:52:36;;;;;;;;;;;;;;;-0.40;88.16;92756.81;5052969;28;20012;-38
2023/03/09 02:55:02;;;;;;;;;;;;;;;-0.24;87.25;92750.63;5053064;28;20440;-38
2023/03/09 02:57:28;;;;;;;;;;;;;;;-0.20;85.74;92751.84;5035545;28;20289;-38
2023/03/09 02:59:53;;;;;;;;;;;;;;;-0.49;86.82;92762.47;5032887;28;19932;-38
2023/03/09 03:02:18;;;;;;;;;;;;;;;-0.36;87.43;92766.16;5032708;28;19937;-38
2023/03/09 03:04:44;;;;;;;;;;;;;;;-0.49;86.84;92765.94;5032776;28;19913;-38
2023/03/09 03:07:09;;;;;;;;;;;;;;;-0.43;87.70;92772.09;5048395;28;19964;-38
2023/03/09 03:09:34;;;;;;;;;;;;;;;-0.60;88.56;92768.63;5032949;28;19917;-38
2023/03/09 03:11:59;;;;;;;;;;;;;;;-0.51;88.58;92760.25;5032526;28;19917;-38
2023/03/09 03:14:25;;;;;;;;;;;;;;;-0.38;88.02;92757.03;5032834;28;19925;-38
2023/03/09 03:16:50;;;;;;;;;;;;;;;-0.53;88.61;92751.88;5032612;28;19913;-38
2023/03/09 03:19:15;;;;;;;;;;;;;;;-0.64;89.90;92746.47;5032707;28;20004;-38
2023/03/09 03:21:40;;;;;;;;;;;;;;;-0.63;89.79;92742.53;5032866;28;19971;-38
2023/03/09 03:24:06;;;;;;;;;;;;;;;-0.75;89.70;92749.19;5032416;28;20460;-38
2023/03/09 03:26:31;;;;;;;;;;;;;;;-0.86;88.90;92754.59;5032592;28;19920;-38
2023/03/09 03:28:56;;;;;;;;;;;;;;;-0.91;89.71;92749.94;5032615;28;20372;-38
2023/03/09 03:31:22;;;;;;;;;;;;;;;-0.96;90.88;92756.06;5032265;28;19913;-38
2023/03/09 03:33:47;;;;;;;;;;;;;;;-0.77;89.88;92754.34;5042723;28;19947;-38
2023/03/09 03:36:12;;;;;;;;;;;;;;;-0.66;89.93;92762.50;5052114;28;20372;-38
2023/03/09 03:38:38;;;;;;;;;;;;;;;-0.77;90.01;92765.19;5051966;28;19927;-38
2023/03/09 03:41:03;;;;;;;;;;;;;;;-0.80;90.11;92764.22;5052131;28;19924;-38
2023/03/09 03:43:28;;;;;;;;;;;;;;;-0.69;89.57;92765.47;5052214;28;19970;-38
2023/03/09 03:45:54;;;;;;;;;;;;;;;-0.77;90.14;92773.31;5052012;28;19917;-38
2023/03/09 03:48:19;;;;;;;;;;;;;;;-0.81;90.53;92760.03;5052014;28;20003;-38
2023/03/09 03:50:44;;;;;;;;;;;;;;;-0.63;89.52;92745.25;5051793;28;20329;-38
2023/03/09 03:53:09;;;;;;;;;;;;;;;-0.67;89.58;92766.41;5051891;28;19928;-38
2023/03/09 03:55:35;;;;;;;;;;;;;;;-0.73;89.56;92773.81;5050332;28;19925;-38
2023/03/09 03:58:00;;;;;;;;;;;;;;;-0.68;88.98;92762.25;5031990;28;19927;-38
2023/03/09 04:00:26;;;;;;;;;;;;;;;-0.58;88.41;92770.84;5031446;28;19925;-38
2023/03/09 04:02:52;;;;;;;;;;;;;;;-0.73;88.41;92765.69;5031797;28;19920;-38
2023/03/09 04:05:17;;;;;;;;;;;;;;;-0.89;89.75;92772.56;5031949;28;19913;-38
2023/03/09 04:07:42;;;;;;;;;;;;;;;-1.05;90.67;92764.44;5031671;28;19925;-38
2023/03/09 04:10:08;;;;;;;;;;;;;;;-1.16;91.13;92756.28;5031788;28;20329;-38
2023/03/09 04:12:34;;;;;;;;;;;;;;;-1.08;91.26;92751.84;5031834;28;19953;-38
2023/03/09 04:14:59;;;;;;;;;;;;;;;-1.11;92.15;92742.03;5031564;28;20000;-38
2023/03/09 04:17:24;;;;;;;;;;;;;;;-0.92;91.06;92751.16;5032028;28;19933;-38
2023/03/09 04:19:50;;;;;;;;;;;;;;;-0.95;91.28;92754.84;5031810;28;19945;-38
2023/03/09 04:22:15;;;;;;;;;;;;;;;-0.98;90.84;92745.00;5031892;28;19913;-38
2023/03/09 04:24:40;;;;;;;;;;;;;;;-0.92;90.96;92738.34;5031518;28;19913;-38
2023/03/09 04:27:05;;;;;;;;;;;;;;;-0.71;91.20;92736.13;5031496;28;19913;-38
2023/03/09 04:29:31;;;;;;;;;;;;;;;-0.78;90.31;92739.34;5031226;28;20414;-38
2023/03/09 04:31:56;;;;;;;;;;;;;;;-1.01;90.81;92735.13;5031483;28;19917;-38
2023/03/09 04:34:21;;;;;;;;;;;;;;;-0.98;91.83;92745.75;5045987;28;19916;-38
2023/03/09 04:36:46;;;;;;;;;;;;;;;-0.88;90.75;92743.50;5051256;28;19917;-38
2023/03/09 04:39:12;;;;;;;;;;;;;;;-0.93;89.84;92741.53;5051219;28;19913;-38
2023/03/09 04:41:37;;;;;;;;;;;;;;;-1.13;90.82;92739.81;5051200;28;20651;-38
2023/03/09 04:44:02;;;;;;;;;;;;;;;-0.98;90.41;92724.06;5051094;28;19919;-38
2023/03/09 04:46:27;;;;;;;;;;;;;;;-1.07;91.04;92727.00;5051014;28;19973;-38
2023/03/09 04:48:53;;;;;;;;;;;;;;;-1.05;92.19;92729.22;5050773;28;19913;-38
2023/03/09 04:51:18;;;;;;;;;;;;;;;-1.14;92.22;92743.00;5051013;28;19917;-38
2023/03/09 04:53:43;;;;;;;;;;;;;;;-1.12;91.51;92740.53;5050513;28;20396;-38
2023/03/09 04:56:09;;;;;;;;;;;;;;;-1.21;91.42;92729.97;5044130;28;19920;-38
2023/03/09 04:58:34;;;;;;;;;;;;;;;-1.24;92.73;92736.34;5030879;28;19917;-38
2023/03/09 05:01:01;;;;;;;;;;;;;;;-1.10;93.01;92727.97;5030470;28;20317;-38
2023/03/09 05:03:27;;;;;;;;;;;;;;;-1.03;92.28;92719.38;5030603;28;20004;-38
2023/03/09 05:05:52;;;;;;;;;;;;;;;-0.93;91.64;92709.75;5030193;28;20441;-38
2023/03/09 05:08:17;;;;;;;;;;;;;;;-0.91;90.51;92720.13;5030539;28;20015;-38
2023/03/09 05:10:42;;;;;;;;;;;;;;;-0.96;90.72;92729.72;5030332;28;19999;-38
2023/03/09 05:13:08;;;;;;;;;;;;;;;-0.79;90.09;92727.00;5030612;28;19952;-38
2023/03/09 05:15:33;;;;;;;;;;;;;;;-0.94;90.24;92721.09;5030292;28;19913;-38
2023/03/09 05:17:58;;;;;;;;;;;;;;;-0.95;89.87;92717.66;5030589;28;19953;-38
2023/03/09 05:20:24;;;;;;;;;;;;;;;-1.00;90.56;92709.53;5030425;28;19952;-38
2023/03/09 05:22:49;;;;;;;;;;;;;;;-0.88;91.43;92713.69;5030375;28;20620;-38
2023/03/09 05:25:14;;;;;;;;;;;;;;;-1.15;91.65;92703.63;5030210;28;20504;-38
2023/03/09 05:27:39;;;;;;;;;;;;;;;-0.94;91.51;92723.81;5030297;28;19917;-38
2023/03/09 05:30:05;;;;;;;;;;;;;;;-1.00;91.97;92710.28;5030056;28;20024;-38
2023/03/09 05:32:30;;;;;;;;;;;;;;;-0.95;92.78;92719.59;5029847;28;19924;-38
2023/03/09 05:34:57;;;;;;;;;;;;;;;-0.78;92.64;92734.63;5049571;28;20475;-38
2023/03/09 05:37:22;;;;;;;;;;;;;;;-0.60;93.18;92738.81;5049875;28;20016;-38
2023/03/09 05:39:47;;;;;;;;;;;;;;;-0.51;92.14;92740.53;5050032;28;20015;-38
2023/03/09 05:42:13;;;;;;;;;;;;;;;-0.41;91.60;92739.06;5049766;28;20362;-38
2023/03/09 05:44:38;;;;;;;;;;;;;;;-0.26;90.38;92742.25;5049868;28;19924;-38
2023/03/09 05:47:04;;;;;;;;;;;;;;;-0.21;89.86;92739.50;5049457;28;19920;-38
2023/03/09 05:49:30;;;;;;;;;;;;;;;-0.18;89.46;92737.78;5049799;28;19917;-38
2023/03/09 05:51:56;;;;;;;;;;;;;;;-0.13;90.15;92745.19;5049618;28;19916;-38
2023/03/09 05:54:22;;;;;;;;;;;;;;;0.07;89.77;92754.97;5049591;28;19916;-38
2023/03/09 05:56:47;;;;;;;;;;;;;;;0.28;89.07;92761.56;5038142;28;19917;-38
2023/03/09 05:59:12;;;;;;;;;;;;;;;0.43;87.44;92756.59;5029423;28;20051;-38
2023/03/09 06:01:37;;;;;;;;;;;;;;;0.34;87.76;92751.44;5029433;28;19913;-38
2023/03/09 06:04:03;;;;;;;;;;;;;;;0.42;89.46;92757.81;5029467;28;19913;-38
2023/03/09 06:06:28;;;;;;;;;;;;;;;0.71;88.88;92754.47;5029265;28;20007;-38
2023/03/09 06:08:54;;;;;;;;;;;;;;;1.01;88.37;92749.84;5029475;28;19913;-38
2023/03/09 06:11:19;;;;;;;;;;;;;;;1.40;88.60;92757.72;5029211;28;19962;-38
2023/03/09 06:13:45;;;;;;;;;;;;;;;1.82;87.61;92748.94;5029389;28;19932;-38
2023/03/09 06:16:12;;;;;;;;;;;;;;;2.38;85.42;92770.16;5028887;28;19995;-38
2023/03/09 06:18:37;;;;;;;;;;;;;;;3.10;82.75;92769.97;5029026;28;19917;-38
2023/03/09 06:21:03;;;;;;;;;;;;;;;3.41;79.79;92774.00;5029137;28;20285;-38
2023/03/09 06:23:29;;;;;;;;;;;;;;;4.06;77.63;92776.19;5029506;28;19917;-38
2023/03/09 06:25:54;;;;;;;;;;;;;;;4.45;75.35;92785.16;5029478;28;19913;-38
2023/03/09 06:28:20;;;;;;;;;;;;;;;4.83;74.35;92782.22;5029000;28;20486;-38
2023/03/09 06:30:45;;;;;;;;;;;;;;;5.12;73.56;92781.09;5028755;28;19936;-38
2023/03/09 06:33:10;;;;;;;;;;;;;;;5.34;72.68;92783.38;5034500;28;20007;-38
2023/03/09 06:35:36;;;;;;;;;;;;;;;5.45;72.24;92785.84;5049219;28;20587;-38
2023/03/09 06:38:01;;;;;;;;;;;;;;;5.19;71.98;92783.94;5049233;28;19912;-38
2023/03/09 06:40:27;;;;;;;;;;;;;;;4.97;73.02;92780.91;5048840;28;19956;-38
2023/03/09 06:42:52;;;;;;;;;;;;;;;4.83;72.95;92774.00;5048978;28;19913;-38
2023/03/09 06:45:20;;;;;;;;;;;;;;;4.65;74.19;92777.59;5049118;28;20011;-38
2023/03/09 06:47:45;;;;;;;;;;;;;;;5.02;74.72;92774.59;5048951;28;19913;-38
2023/03/09 06:50:11;;;;;;;;;;;;;;;5.64;72.41;92763.75;5048957;28;19924;-38
2023/03/09 06:52:36;;;;;;;;;;;;;;;5.97;71.18;92768.50;5049052;28;19978;-38
2023/03/09 06:55:01;;;;;;;;;;;;;;;6.16;70.16;92760.03;5045320;28;20458;-38
2023/03/09 06:57:26;;;;;;;;;;;;;;;6.50;68.84;92757.91;5046148;28;19917;-38
2023/03/09 06:59:52;;;;;;;;;;;;;;;6.19;69.60;92761.72;5048619;28;19921;-38
2023/03/09 07:02:17;;;;;;;;;;;;;;;6.95;69.84;92766.41;5048966;28;19917;-38
2023/03/09 07:04:42;;;;;;;;;;;;;;;7.74;65.30;92765.56;5048967;28;20316;-38
2023/03/09 07:07:08;;;;;;;;;;;;;;;7.77;65.70;92756.97;5048669;28;19956;-38
2023/03/09 07:09:33;;;;;;;;;;;;;;;7.94;65.69;92761.94;5048656;28;19962;-38
2023/03/09 07:11:59;;;;;;;;;;;;;;;8.35;64.57;92756.09;5048827;28;19917;-38
2023/03/09 07:14:24;;;;;;;;;;;;;;;8.88;62.99;92762.25;5048520;28;19986;-38
2023/03/09 07:16:56;;;;;;;;;;;;;;;9.31;61.62;92749.47;5048480;28;19912;-38
2023/03/09 07:19:21;;;;;;;;;;;;;;;9.68;59.82;92743.75;5048844;28;19977;-38
2023/03/09 07:21:46;;;;;;;;;;;;;;;9.49;59.42;92748.25;5038442;28;20046;-38
2023/03/09 07:24:12;;;;;;;;;;;;;;;9.50;60.15;92744.97;5028643;28;19914;-38
2023/03/09 07:26:37;;;;;;;;;;;;;;;9.26;60.70;92742.88;5028722;28;19974;-38
2023/03/09 07:29:02;;;;;;;;;;;;;;;9.36;60.63;92746.47;5031033;28;20356;-38
2023/03/09 07:31:29;;;;;;;;;;;;;;;9.23;60.66;92740.47;5032077;28;19913;-38
2023/03/09 07:33:54;;;;;;;;;;;;;;;9.54;59.13;92744.56;5043562;28;19984;-38
2023/03/09 07:36:19;;;;;;;;;;;;;;;9.50;58.42;92741.47;5052259;28;20408;-38
2023/03/09 07:38:46;;;;;;;;;;;;;;;9.30;60.57;92745.97;5052175;28;19924;-38
2023/03/09 07:41:11;;;;;;;;;;;;;;;9.43;59.99;92745.72;5052269;28;19913;-38
2023/03/09 07:43:43;;;;;;;;;;;;;;;9.26;60.16;92755.91;5052473;28;19921;-38
2023/03/09 07:46:09;;;;;;;;;;;;;;;8.28;63.66;92751.31;5052238;28;19920;-38
2023/03/09 07:48:36;;;;;;;;;;;;;;;8.17;64.39;92754.41;5052004;28;19913;-38
2023/03/09 07:51:01;;;;;;;;;;;;;;;8.26;65.28;92757.38;5050728;28;19916;-38
2023/03/09 07:53:29;;;;;;;;;;;;;;;7.88;65.94;92753.13;5031834;28;20390;-38
2023/03/09 07:55:58;;;;;;;;;;;;;;;7.96;66.75;92749.09;5036423;28;19913;-38
2023/03/09 07:58:23;;;;;;;;;;;;;;;8.48;66.75;92749.66;5052031;28;19913;-38
2023/03/09 08:00:49;;;;;;;;;;;;;;;9.09;65.19;92754.50;5051528;28;20427;-38
2023/03/09 08:03:14;;;;;;;;;;;;;;;9.71;63.22;92741.91;5051637;28;20439;-38
2023/03/09 08:05:40;;;;;;;;;;;;;;;10.44;62.36;92740.47;5051499;28;19913;-38
2023/03/09 08:08:05;;;;;;;;;;;;;;;11.12;58.58;92743.31;5051549;28;20035;-38
2023/03/09 08:10:30;;;;;;;;;;;;;;;11.59;57.79;92742.19;5051306;28;19912;-38
2023/03/09 08:12:56;;;;;;;;;;;;;;;12.28;57.37;92742.03;5051360;28;19927;-38
2023/03/09 08:15:22;;;;;;;;;;;;;;;13.11;55.18;92738.59;5051387;28;19917;-38
2023/03/09 08:17:47;;;;;;;;;;;;;;;13.46;52.00;92739.03;5051261;28;20306;-38
2023/03/09 08:20:13;;;;;;;;;;;;;;;13.49;50.98;92738.59;5034848;28;19928;-38
2023/03/09 08:22:38;;;;;;;;;;;;;;;14.28;48.78;92733.75;5031193;28;19956;-38
2023/03/09 08:25:04;;;;;;;;;;;;;;;14.66;47.95;92743.97;5031617;28;19920;-38
2023/03/09 08:27:30;;;;;;;;;;;;;;;15.49;48.06;92736.28;5031153;28;20458;-38
2023/03/09 08:29:55;;;;;;;;;;;;;;;15.71;42.43;92743.28;5031083;28;19913;-38
2023/03/09 08:32:23;;;;;;;;;;;;;;;15.34;42.26;92738.72;5030639;28;19971;-38
2023/03/09 08:34:49;;;;;;;;;;;;;;;14.46;42.14;92739.84;5049670;28;19920;-38
2023/03/09 08:37:15;;;;;;;;;;;;;;;14.04;43.99;92737.63;5050963;28;19913;-38
2023/03/09 08:39:40;;;;;;;;;;;;;;;15.15;44.75;92729.22;5049973;28;19913;-38
2023/03/09 08:42:05;;;;;;;;;;;;;;;14.78;42.05;92725.34;5050835;28;19913;-38
2023/03/09 08:44:31;;;;;;;;;;;;;;;14.78;42.77;92725.34;5050712;28;19913;-38
2023/03/09 08:46:56;;;;;;;;;;;;;;;14.92;41.63;92729.06;5050799;28;19923;-38
2023/03/09 08:49:21;;;;;;;;;;;;;;;15.24;41.04;92730.47;5032163;28;19925;-38
2023/03/09 08:51:48;;;;;;;;;;;;;;;15.77;41.85;92723.44;5031005;28;19975;-38
2023/03/09 08:54:13;;;;;;;;;;;;;;;16.17;39.95;92728.78;5030689;28;19917;-38
2023/03/09 08:56:38;;;;;;;;;;;;;;;15.91;40.39;92729.94;5030510;28;20004;-38
2023/03/09 08:59:04;;;;;;;;;;;;;;;15.97;39.12;92732.34;5030523;28;19917;-38
2023/03/09 09:01:29;;;;;;;;;;;;;;;14.64;41.29;92729.94;5030919;28;19913;-38
2023/03/09 09:03:54;;;;;;;;;;;;;;;15.07;40.55;92725.19;5030723;28;19940;-38
2023/03/09 09:06:19;;;;;;;;;;;;;;;14.46;42.54;92720.41;5030834;28;19913;-39
2023/03/09 09:08:45;;;;;;;;;;;;;;;14.07;42.46;92730.16;5030841;28;19917;-38
2023/03/09 09:11:11;;;;;;;;;;;;;;;14.25;43.37;92714.78;5030917;28;20458;-39
2023/03/09 09:13:37;;;;;;;;;;;;;;;14.37;43.01;92721.16;5045851;28;19917;-38
2023/03/09 09:16:05;;;;;;;;;;;;;;;15.16;41.19;92716.03;5030685;28;19924;-39
2023/03/09 09:18:30;;;;;;;;;;;;;;;15.43;40.15;92710.13;5030521;28;19913;-38
2023/03/09 09:20:56;;;;;;;;;;;;;;;15.57;40.90;92708.28;5030379;28;20356;-38
2023/03/09 09:23:21;;;;;;;;;;;;;;;16.77;39.95;92703.88;5030639;28;19921;-39
2023/03/09 09:25:53;;;;;;;;;;;;;;;17.76;36.26;92701.91;5030412;28;19983;-37
2023/03/09 09:28:18;;;;;;;;;;;;;;;18.34;35.52;92698.09;5030117;28;20420;-39
2023/03/09 09:30:43;;;;;;;;;;;;;;;19.61;34.57;92686.50;5029784;28;19924;-38
2023/03/09 09:33:11;;;;;;;;;;;;;;;20.99;31.76;92687.94;5035244;28;20032;-38
2023/03/09 09:35:36;;;;;;;;;;;;;;;20.72;31.62;92683.28;5050405;28;19940;-38
2023/03/09 09:38:02;;;;;;;;;;;;;;;20.72;31.24;92677.66;5049949;28;20616;-38
2023/03/09 09:40:27;;;;;;;;;;;;;;;20.00;33.61;92671.50;5050260;28;19928;-39
2023/03/09 09:42:53;;;;;;;;;;;;;;;20.28;32.22;92678.44;5049968;28;19912;-38
2023/03/09 09:45:29;;;;;;;;;;;;;;;20.42;32.89;92667.91;5034086;28;19913;-38
2023/03/09 09:47:55;;;;;;;;;;;;;;;21.99;29.81;92657.75;5030124;28;19917;-38
2023/03/09 09:50:21;;;;;;;;;;;;;;;22.23;29.89;92660.78;5045619;28;19935;-39
2023/03/09 09:52:46;;;;;;;;;;;;;;;23.35;28.82;92648.06;5045302;28;19928;-39
2023/03/09 09:55:15;;;;;;;;;;;;;;;22.44;28.79;92649.66;5030103;28;19921;-39
2023/03/09 09:57:48;;;;;;;;;;;;;;;21.86;29.95;92667.06;5064352;28;19967;-38
2023/03/09 10:00:14;;;;;;;;;;;;;;;23.96;26.68;92662.06;5064878;28;19921;-38
2023/03/09 10:02:39;;;;;;;;;;;;;;;23.18;27.46;92667.84;5049561;28;19924;-39
2023/03/09 10:05:07;;;;;;;;;;;;;;;23.17;28.68;92655.13;5049585;28;19913;-38
2023/03/09 10:07:32;;;;;;;;;;;;;;;23.10;29.21;92657.03;5065028;28;19920;-39
2023/03/09 10:09:59;;;;;;;;;;;;;;;23.21;27.98;92641.91;5065506;28;19920;-38
2023/03/09 10:12:24;;;;;;;;;;;;;;;22.77;28.00;92642.44;5064846;28;19920;-39
2023/03/09 10:15:04;;;;;;;;;;;;;;;22.10;28.45;92639.19;5049658;28;19913;-39
2023/03/09 10:17:31;;;;;;;;;;;;;;;23.19;28.60;92646.75;5049724;28;19947;-39
2023/03/09 10:19:57;;;;;;;;;;;;;;;23.77;27.55;92642.38;5050620;28;19916;-39
2023/03/09 10:22:23;;;;;;;;;;;;;;;23.69;26.63;92633.69;5029173;28;19955;-39
2023/03/09 10:24:52;;;;;;;;;;;;;;;24.22;27.61;92619.88;5029727;28;19925;-39
2023/03/09 10:27:19;;;;;;;;;;;;;;;24.38;26.77;92614.00;5029277;28;20468;-39
2023/03/09 10:29:59;;;;;;;;;;;;;;;25.13;24.83;92608.38;5029300;28;20024;-39
2023/03/09 10:32:30;;;;;;;;;;;;;;;24.70;24.50;92598.00;5028800;28;19919;-38
2023/03/09 10:34:58;;;;;;;;;;;;;;;23.89;25.82;92598.38;5049066;28;19999;-39
2023/03/09 10:37:24;;;;;;;;;;;;;;;23.91;25.85;92597.72;5049311;28;19920;-39
2023/03/09 10:39:50;;;;;;;;;;;;;;;24.14;28.10;92588.59;5047452;28;19916;-39
2023/03/09 10:42:22;;;;;;;;;;;;;;;24.77;26.32;92588.34;5029200;28;20391;-39
2023/03/09 10:44:50;;;;;;;;;;;;;;;25.19;27.15;92583.84;5029035;28;20012;-39
2023/03/09 10:47:15;;;;;;;;;;;;;;;24.78;26.76;92584.13;5044263;28;19917;-38
2023/03/09 10:49:41;;;;;;;;;;;;;;;24.60;27.04;92581.47;5029308;28;19913;-39
2023/03/09 10:52:06;;;;;;;;;;;;;;;25.70;25.40;92577.38;5029460;28;20368;-39
2023/03/09 10:54:35;;;;;;;;;;;;;;;26.48;23.52;92574.94;5044026;28;19925;-39
2023/03/09 10:57:00;;;;;;;;;;;;;;;25.28;25.58;92570.63;5028815;28;20326;-39
2023/03/09 10:59:26;;;;;;;;;;;;;;;24.62;24.80;92567.44;5044264;28;19928;-39
2023/03/09 11:01:53;;;;;;;;;;;;;;;24.58;24.39;92563.78;5028819;28;19917;-39
2023/03/09 11:04:21;;;;;;;;;;;;;;;24.78;26.70;92559.44;5031886;28;19917;-39
2023/03/09 11:06:48;;;;;;;;;;;;;;;25.46;25.40;92554.19;5032816;28;19917;-39
2023/03/09 11:09:14;;;;;;;;;;;;;;;25.03;25.53;92555.19;5048423;28;19940;-39
2023/03/09 11:11:40;;;;;;;;;;;;;;;24.94;26.07;92556.34;5048420;28;20380;-39
2023/03/09 11:14:16;;;;;;;;;;;;;;;25.04;23.73;92550.22;5032918;28;20469;-39
2023/03/09 11:16:48;;;;;;;;;;;;;;;25.12;24.97;92534.22;5048282;28;19944;-39
2023/03/09 11:19:14;;;;;;;;;;;;;;;25.65;24.39;92536.25;5032549;28;20011;-39
2023/03/09 11:21:43;;;;;;;;;;;;;;;24.80;25.19;92528.44;5032847;28;20557;-39
2023/03/09 11:24:08;;;;;;;;;;;;;;;24.38;25.86;92527.25;5047995;28;19979;-39
2023/03/09 11:26:42;;;;;;;;;;;;;;;22.18;28.05;92530.56;5048099;28;19953;-39
2023/03/09 11:29:27;;;;;;;;;;;;;;;20.91;30.57;92544.47;5048003;28;19923;-39
2023/03/09 11:31:53;;;;;;;;;;;;;;;19.51;32.48;92543.19;5032358;28;19913;-38
2023/03/09 11:34:24;;;;;;;;;;;;;;;19.22;32.62;92537.59;5047016;28;20027;-39
2023/03/09 11:36:57;;;;;;;;;;;;;;;18.61;34.10;92533.94;5044433;28;19992;-38
2023/03/09 11:39:30;;;;;;;;;;;;;;;17.99;35.82;92537.03;5032414;28;19917;-39
2023/03/09 11:41:55;;;;;;;;;;;;;;;18.68;34.62;92527.28;5047688;28;19913;-39
2023/03/09 11:44:22;;;;;;;;;;;;;;;18.89;33.98;92517.81;5032582;28;20071;-39
2023/03/09 11:46:48;;;;;;;;;;;;;;;18.93;34.25;92518.00;5031921;28;19913;-38
2023/03/09 11:49:15;;;;;;;;;;;;;;;19.74;34.63;92522.56;5047480;28;19928;-39
2023/03/09 11:51:45;;;;;;;;;;;;;;;21.07;32.36;92503.09;5047520;28;19928;-39
2023/03/09 11:54:27;;;;;;;;;;;;;;;22.25;30.52;92501.31;5047533;28;20007;-38
2023/03/09 11:56:52;;;;;;;;;;;;;;;23.25;28.92;92504.03;5059493;28;19912;-39
2023/03/09 11:59:18;;;;;;;;;;;;;;;23.03;28.22;92503.31;5067268;28;20626;-39
2023/03/09 12:01:49;;;;;;;;;;;;;;;22.77;29.67;92496.09;5052035;28;20467;-39
2023/03/09 12:04:15;;;;;;;;;;;;;;;22.64;29.64;92489.31;5051908;28;19912;-39
2023/03/09 12:06:43;;;;;;;;;;;;;;;22.66;29.93;92480.94;5051471;28;19992;-39
2023/03/09 12:09:09;;;;;;;;;;;;;;;23.01;28.13;92480.72;5067343;28;19912;-39
2023/03/09 12:11:39;;;;;;;;;;;;;;;22.71;30.53;92481.81;5067356;28;20340;-39
2023/03/09 12:14:09;;;;;;;;;;;;;;;22.80;28.97;92470.19;5050768;28;19924;-39
2023/03/09 12:16:35;;;;;;;;;;;;;;;23.34;27.15;92459.97;5050719;28;19913;-39
2023/03/09 12:19:01;;;;;;;;;;;;;;;23.23;29.39;92466.66;5044528;28;19948;-39
2023/03/09 12:21:36;;;;;;;;;;;;;;;23.63;27.10;92461.56;5031611;28;19948;-39
2023/03/09 12:24:03;;;;;;;;;;;;;;;22.38;29.00;92460.25;5031345;28;20435;-39
2023/03/09 12:26:32;;;;;;;;;;;;;;;21.90;29.67;92453.63;5046710;28;19956;-39
2023/03/09 12:29:04;;;;;;;;;;;;;;;22.00;31.07;92464.53;5031340;28;19924;-39
2023/03/09 12:31:33;;;;;;;;;;;;;;;22.11;30.57;92443.84;5031431;28;19988;-39
2023/03/09 12:33:59;;;;;;;;;;;;;;;21.73;30.46;92437.53;5042945;28;20002;-38
2023/03/09 12:36:26;;;;;;;;;;;;;;;21.92;31.12;92433.34;5051255;28;19921;-38
2023/03/09 12:39:10;;;;;;;;;;;;;;;21.67;31.50;92440.13;5051033;28;19966;-39
2023/03/09 12:42:01;;;;;;;;;;;;;;;21.42;31.28;92434.97;5051362;28;19944;-38
2023/03/09 12:44:45;;;;;;;;;;;;;;;21.33;31.59;92424.78;5050740;28;20005;-38
2023/03/09 12:47:19;;;;;;;;;;;;;;;20.99;33.13;92426.94;5050714;28;19917;-38